Time;durP1;ratioP1;P1;durP2;ratioP2;P2;SDS_P1;SDS_P2;PMS_P1;PMS_P2;Temp;Humidity;BMP_temperature;BMP_pressure;BME280_temperature;BME280_humidity;BME280_pressure;Samples;Min_cycle;Max_cycle;Signal;HPM_P1;HPM_P2
2023/04/02 00:00:09;;;;;;;;;;;7.30;91.50;;;;;;5035615;28;20402;-81
2023/04/02 00:02:54;;;;;;;;;;;7.20;91.70;;;;;;5056825;28;20338;-82
2023/04/02 00:05:29;;;;;;;;;;;7.20;91.90;;;;;;5053065;28;19971;-81
2023/04/02 00:07:56;;;;;;;;;;;7.20;91.40;;;;;;5047821;28;19913;-81
2023/04/02 00:10:25;;;;;;;;;;;7.10;91.50;;;;;;5031971;28;19921;-81
2023/04/02 00:13:09;;;;;;;;;;;7.20;91.40;;;;;;5031817;28;19913;-82
2023/04/02 00:15:35;;;;;;;;;;;7.10;91.40;;;;;;5042524;28;19913;-82
2023/04/02 00:18:01;;;;;;;;;;;7.00;91.00;;;;;;5048714;28;19923;-81
2023/04/02 00:20:27;;;;;;;;;;;6.90;91.20;;;;;;5035043;28;19917;-82
2023/04/02 00:22:52;;;;;;;;;;;7.00;91.30;;;;;;5031648;28;20332;-82
2023/04/02 00:25:18;;;;;;;;;;;7.00;91.10;;;;;;5056046;28;19983;-81
2023/04/02 00:27:44;;;;;;;;;;;6.90;91.20;;;;;;5037115;28;19916;-81
2023/04/02 00:30:11;;;;;;;;;;;6.90;91.20;;;;;;5053674;28;19920;-82
2023/04/02 00:32:37;;;;;;;;;;;7.00;91.50;;;;;;5030775;28;19995;-81
2023/04/02 00:35:03;;;;;;;;;;;7.00;91.20;;;;;;5057436;28;20326;-81
2023/04/02 00:37:37;;;;;;;;;;;7.00;90.70;;;;;;5028093;28;19989;-81
2023/04/02 00:40:08;;;;;;;;;;;7.00;90.30;;;;;;5038021;28;20397;-81
2023/04/02 00:42:34;;;;;;;;;;;7.00;90.40;;;;;;5056013;28;19912;-81
2023/04/02 00:45:00;;;;;;;;;;;6.80;90.50;;;;;;5038448;28;19928;-81
2023/04/02 00:47:34;;;;;;;;;;;6.80;90.40;;;;;;5031754;28;20299;-80
2023/04/02 00:50:04;;;;;;;;;;;6.80;90.30;;;;;;5033831;28;19920;-80
2023/04/02 00:52:30;;;;;;;;;;;6.60;90.30;;;;;;5033280;28;19913;-80
2023/04/02 00:55:02;;;;;;;;;;;6.60;90.70;;;;;;5049278;28;19920;-81
2023/04/02 00:57:28;;;;;;;;;;;6.70;90.50;;;;;;5031081;28;19938;-81
2023/04/02 01:00:07;;;;;;;;;;;6.70;89.90;;;;;;5047782;28;19917;-81
2023/04/02 01:02:34;;;;;;;;;;;6.50;89.60;;;;;;5035170;28;19913;-81
2023/04/02 01:05:20;;;;;;;;;;;6.50;89.80;;;;;;5062351;23;19933;-84
2023/04/02 01:07:45;;;;;;;;;;;6.40;90.10;;;;;;5048999;28;19920;-84
2023/04/02 01:10:10;;;;;;;;;;;6.40;90.40;;;;;;5032356;28;20007;-84
2023/04/02 01:12:44;;;;;;;;;;;6.40;90.30;;;;;;5038558;28;20018;-85
2023/04/02 01:15:18;;;;;;;;;;;6.30;90.00;;;;;;5031105;28;19919;-85
2023/04/02 01:17:57;;;;;;;;;;;6.30;90.20;;;;;;5033219;28;20351;-85
2023/04/02 01:20:25;;;;;;;;;;;6.20;90.30;;;;;;5031928;28;19913;-86
2023/04/02 01:23:08;;;;;;;;;;;6.50;90.20;;;;;;5038113;28;19979;-84
2023/04/02 01:25:42;;;;;;;;;;;6.30;90.10;;;;;;5031116;28;19917;-86
2023/04/02 01:28:12;;;;;;;;;;;6.30;90.10;;;;;;5029122;28;20043;-86
2023/04/02 01:30:37;;;;;;;;;;;6.30;90.20;;;;;;5029542;28;19917;-85
2023/04/02 01:33:04;;;;;;;;;;;6.20;90.50;;;;;;5021256;28;20279;-86
2023/04/02 01:35:32;;;;;;;;;;;6.30;91.10;;;;;;5030345;28;19913;-87
2023/04/02 01:37:57;;;;;;;;;;;6.30;90.80;;;;;;5028769;28;19921;-87
2023/04/02 01:40:32;;;;;;;;;;;6.10;90.60;;;;;;5030970;28;19917;-85
2023/04/02 01:43:14;;;;;;;;;;;6.10;90.80;;;;;;5029603;28;19921;-86
2023/04/02 01:45:40;;;;;;;;;;;6.10;91.30;;;;;;5029213;28;19913;-86
2023/04/02 01:48:19;;;;;;;;;;;6.10;91.30;;;;;;5031630;28;19936;-86
2023/04/02 01:50:47;;;;;;;;;;;6.10;91.20;;;;;;5031205;28;19917;-86
2023/04/02 01:53:14;;;;;;;;;;;6.10;90.80;;;;;;5040829;28;19924;-86
2023/04/02 01:55:45;;;;;;;;;;;6.00;91.20;;;;;;5050518;28;19913;-85
2023/04/02 01:58:12;;;;;;;;;;;6.00;91.10;;;;;;5053902;28;19901;-87
2023/04/02 02:00:43;;;;;;;;;;;6.00;90.90;;;;;;5029442;28;19970;-85
2023/04/02 02:03:10;;;;;;;;;;;5.90;91.00;;;;;;5031197;28;19913;-87
2023/04/02 02:05:35;;;;;;;;;;;5.90;91.00;;;;;;5036432;28;19917;-86
2023/04/02 02:08:01;;;;;;;;;;;5.80;90.70;;;;;;5031866;28;19960;-87
2023/04/02 02:10:28;;;;;;;;;;;5.90;91.20;;;;;;5031145;28;19924;-87
2023/04/02 02:12:55;;;;;;;;;;;6.00;90.80;;;;;;5032564;28;20302;-87
2023/04/02 02:15:21;;;;;;;;;;;5.80;90.30;;;;;;5030870;28;19913;-88
2023/04/02 02:17:48;;;;;;;;;;;5.90;90.90;;;;;;5029691;28;20275;-88
2023/04/02 02:20:13;;;;;;;;;;;6.00;91.00;;;;;;5029481;28;20000;-86
2023/04/02 02:22:52;;;;;;;;;;;5.90;90.70;;;;;;5034003;28;19994;-87
2023/04/02 02:25:25;;;;;;;;;;;5.80;90.70;;;;;;5045633;28;19966;-84
2023/04/02 02:28:09;;;;;;;;;;;5.70;90.60;;;;;;5029797;28;19918;-88
2023/04/02 02:30:46;;;;;;;;;;;5.60;90.30;;;;;;5050660;28;20003;-86
2023/04/02 02:33:20;;;;;;;;;;;5.60;90.40;;;;;;5036998;28;19925;-87
2023/04/02 02:35:48;;;;;;;;;;;5.60;90.60;;;;;;5033994;28;19920;-87
2023/04/02 02:38:32;;;;;;;;;;;5.60;90.70;;;;;;5026738;28;19940;-85
2023/04/02 02:41:15;;;;;;;;;;;5.60;90.50;;;;;;5028704;28;19921;-87
2023/04/02 02:43:43;;;;;;;;;;;5.70;90.50;;;;;;5024680;28;19913;-82
2023/04/02 02:46:12;;;;;;;;;;;5.60;90.80;;;;;;5029920;28;19928;-86
2023/04/02 02:48:38;;;;;;;;;;;5.50;90.60;;;;;;5029201;28;20340;-85
2023/04/02 02:51:08;;;;;;;;;;;5.50;90.30;;;;;;5030229;28;20036;-87
2023/04/02 02:53:45;;;;;;;;;;;5.50;90.00;;;;;;5028449;28;19917;-87
2023/04/02 02:56:11;;;;;;;;;;;5.50;89.70;;;;;;5026011;28;20390;-88
2023/04/02 02:58:36;;;;;;;;;;;5.50;89.90;;;;;;5041888;28;19913;-87
2023/04/02 03:01:02;;;;;;;;;;;5.50;89.50;;;;;;5030505;28;20127;-88
2023/04/02 03:03:31;;;;;;;;;;;5.50;89.30;;;;;;5035602;28;20003;-88
2023/04/02 03:06:00;;;;;;;;;;;5.40;89.60;;;;;;5030775;28;19933;-86
2023/04/02 03:08:28;;;;;;;;;;;5.50;89.90;;;;;;5035588;28;19921;-87
2023/04/02 03:11:05;;;;;;;;;;;5.50;89.90;;;;;;5033191;28;19921;-87
2023/04/02 03:13:37;;;;;;;;;;;5.50;90.20;;;;;;5036109;28;19913;-87
2023/04/02 03:16:11;;;;;;;;;;;5.60;90.10;;;;;;5033923;28;19921;-87
2023/04/02 03:18:56;;;;;;;;;;;5.60;90.20;;;;;;5035918;28;19913;-87
2023/04/02 03:21:24;;;;;;;;;;;5.60;90.00;;;;;;5029745;28;19913;-86
2023/04/02 03:23:55;;;;;;;;;;;5.50;89.90;;;;;;5033547;28;20375;-86
2023/04/02 03:26:36;;;;;;;;;;;5.60;89.60;;;;;;5032694;28;19897;-87
2023/04/02 03:29:24;;;;;;;;;;;5.60;90.10;;;;;;5057383;28;19921;-86
2023/04/02 03:31:56;;;;;;;;;;;5.60;89.80;;;;;;5037731;28;19917;-88
2023/04/02 03:34:34;;;;;;;;;;;5.60;90.00;;;;;;5031258;28;19917;-88
2023/04/02 03:37:25;;;;;;;;;;;5.60;90.10;;;;;;5034489;28;20107;-88
2023/04/02 03:40:09;;;;;;;;;;;5.60;89.90;;;;;;5031736;28;19920;-87
2023/04/02 03:42:50;;;;;;;;;;;5.40;89.60;;;;;;5031644;28;19913;-86
2023/04/02 03:45:18;;;;;;;;;;;5.50;89.50;;;;;;5033342;28;19931;-87
2023/04/02 03:47:48;;;;;;;;;;;5.30;89.80;;;;;;5029216;28;20446;-87
2023/04/02 03:50:19;;;;;;;;;;;5.40;90.10;;;;;;5026575;28;19956;-87
2023/04/02 03:52:45;;;;;;;;;;;5.30;89.70;;;;;;5031211;28;19925;-87
2023/04/02 03:55:16;;;;;;;;;;;5.30;89.90;;;;;;5023789;28;19968;-87
2023/04/02 03:57:51;;;;;;;;;;;5.30;89.60;;;;;;5031015;28;20286;-86
2023/04/02 04:00:24;;;;;;;;;;;5.20;89.70;;;;;;5024377;28;20031;-85
2023/04/02 04:03:04;;;;;;;;;;;5.10;89.60;;;;;;5028479;28;19914;-85
2023/04/02 04:05:35;;;;;;;;;;;5.10;90.20;;;;;;5026501;28;20436;-85
2023/04/02 04:08:06;;;;;;;;;;;5.00;90.50;;;;;;5030122;28;19924;-85
2023/04/02 04:10:32;;;;;;;;;;;5.00;90.50;;;;;;5033937;28;19917;-85
2023/04/02 04:13:07;;;;;;;;;;;5.10;90.10;;;;;;5031965;28;19913;-85
2023/04/02 04:15:40;;;;;;;;;;;5.10;90.00;;;;;;5034581;28;19921;-86
2023/04/02 04:18:18;;;;;;;;;;;5.00;90.10;;;;;;5029545;28;19925;-85
2023/04/02 04:20:55;;;;;;;;;;;5.00;90.10;;;;;;5031024;28;19917;-86
2023/04/02 04:23:29;;;;;;;;;;;5.00;90.30;;;;;;5017183;28;19913;-86
2023/04/02 04:25:58;;;;;;;;;;;5.00;90.40;;;;;;5032773;28;19949;-86
2023/04/02 04:28:28;;;;;;;;;;;4.90;89.90;;;;;;5028012;28;20011;-86
2023/04/02 04:31:02;;;;;;;;;;;4.80;90.20;;;;;;5032979;28;20023;-85
2023/04/02 04:33:40;;;;;;;;;;;4.90;90.10;;;;;;5047818;28;19913;-85
2023/04/02 04:36:17;;;;;;;;;;;4.90;89.80;;;;;;5031822;28;19979;-86
2023/04/02 04:38:48;;;;;;;;;;;4.90;89.90;;;;;;5027725;28;19963;-85
2023/04/02 04:41:21;;;;;;;;;;;4.80;89.80;;;;;;5026353;28;19920;-86
2023/04/02 04:43:49;;;;;;;;;;;4.90;89.70;;;;;;5031835;28;19913;-86
2023/04/02 04:46:21;;;;;;;;;;;4.70;89.40;;;;;;5030505;28;19913;-85
2023/04/02 04:48:52;;;;;;;;;;;4.80;89.50;;;;;;5029252;28;19913;-86
2023/04/02 04:51:44;;;;;;;;;;;4.70;89.40;;;;;;5031291;28;20302;-86
2023/04/02 04:54:11;;;;;;;;;;;4.80;89.60;;;;;;5027880;28;19939;-87
2023/04/02 04:56:37;;;;;;;;;;;4.70;89.40;;;;;;5031359;28;19921;-83
2023/04/02 04:59:02;;;;;;;;;;;4.80;89.20;;;;;;5031955;28;19975;-87
2023/04/02 05:01:43;;;;;;;;;;;4.70;88.60;;;;;;5033804;28;20306;-87
2023/04/02 05:04:18;;;;;;;;;;;4.60;89.20;;;;;;5029841;28;19917;-85
2023/04/02 05:06:48;;;;;;;;;;;4.60;89.20;;;;;;5021694;28;19921;-86
2023/04/02 05:09:21;;;;;;;;;;;4.70;89.10;;;;;;5049029;28;19924;-86
2023/04/02 05:11:50;;;;;;;;;;;4.60;89.10;;;;;;5044621;28;19921;-84
2023/04/02 05:14:16;;;;;;;;;;;4.60;89.40;;;;;;5033777;28;20386;-86
2023/04/02 05:16:49;;;;;;;;;;;4.80;89.00;;;;;;5033866;28;19928;-85
2023/04/02 05:19:27;;;;;;;;;;;4.80;88.60;;;;;;5032317;28;21153;-87
2023/04/02 05:22:15;;;;;;;;;;;4.80;88.40;;;;;;5033484;28;20337;-86
2023/04/02 05:24:47;;;;;;;;;;;4.70;88.10;;;;;;5021956;28;20029;-86
2023/04/02 05:27:27;;;;;;;;;;;4.70;88.40;;;;;;5045175;28;20271;-86
2023/04/02 05:29:58;;;;;;;;;;;4.70;88.50;;;;;;5030020;28;20011;-85
2023/04/02 05:32:27;;;;;;;;;;;4.60;87.90;;;;;;5028930;28;19917;-86
2023/04/02 05:34:54;;;;;;;;;;;4.60;88.30;;;;;;5029243;28;19957;-86
2023/04/02 05:37:22;;;;;;;;;;;4.60;88.40;;;;;;5032389;28;20243;-86
2023/04/02 05:39:51;;;;;;;;;;;4.60;88.50;;;;;;5031408;28;19960;-87
2023/04/02 05:42:40;;;;;;;;;;;4.60;88.40;;;;;;5031442;28;19996;-86
2023/04/02 05:45:12;;;;;;;;;;;4.60;88.20;;;;;;5027043;28;19913;-86
2023/04/02 05:47:39;;;;;;;;;;;4.60;88.70;;;;;;5031449;28;19920;-85
2023/04/02 05:50:11;;;;;;;;;;;4.50;88.30;;;;;;5030540;28;19939;-85
2023/04/02 05:52:41;;;;;;;;;;;4.60;88.40;;;;;;5052184;28;19945;-85
2023/04/02 05:55:09;;;;;;;;;;;4.60;88.00;;;;;;5038541;28;19978;-85
2023/04/02 05:57:36;;;;;;;;;;;4.60;87.30;;;;;;5033558;28;19913;-86
2023/04/02 06:00:07;;;;;;;;;;;4.60;87.60;;;;;;5029556;28;19975;-84
2023/04/02 06:02:44;;;;;;;;;;;4.60;87.80;;;;;;5030842;28;19913;-86
2023/04/02 06:05:20;;;;;;;;;;;4.60;87.80;;;;;;5039100;28;19921;-87
2023/04/02 06:07:49;;;;;;;;;;;4.50;87.50;;;;;;5032544;28;20046;-82
2023/04/02 06:10:22;;;;;;;;;;;4.50;87.00;;;;;;5029413;28;19925;-83
2023/04/02 06:12:50;;;;;;;;;;;4.50;87.30;;;;;;5032264;28;19940;-82
2023/04/02 06:15:22;;;;;;;;;;;4.50;87.60;;;;;;5026624;28;19957;-83
2023/04/02 06:17:51;;;;;;;;;;;4.40;87.70;;;;;;5029492;28;19932;-82
2023/04/02 06:20:17;;;;;;;;;;;4.30;87.70;;;;;;5030989;28;19999;-83
2023/04/02 06:22:47;;;;;;;;;;;4.40;87.90;;;;;;5031686;28;19913;-83
2023/04/02 06:25:16;;;;;;;;;;;4.30;87.70;;;;;;5025859;28;19959;-84
2023/04/02 06:27:42;;;;;;;;;;;4.30;88.50;;;;;;5032099;28;19913;-84
2023/04/02 06:30:13;;;;;;;;;;;4.30;88.60;;;;;;5031029;28;20298;-85
2023/04/02 06:32:38;;;;;;;;;;;4.40;88.20;;;;;;5026798;28;19910;-86
2023/04/02 06:35:04;;;;;;;;;;;4.20;88.20;;;;;;5026786;28;20296;-83
2023/04/02 06:37:41;;;;;;;;;;;4.20;88.30;;;;;;5042132;28;19980;-85
2023/04/02 06:40:35;;;;;;;;;;;4.20;88.70;;;;;;5030559;28;19927;-84
2023/04/02 06:43:04;;;;;;;;;;;4.30;89.20;;;;;;5013314;28;19921;-82
2023/04/02 06:45:33;;;;;;;;;;;4.30;88.80;;;;;;5028440;28;19920;-83
2023/04/02 06:48:03;;;;;;;;;;;4.20;88.80;;;;;;5031595;28;19913;-87
2023/04/02 06:50:41;;;;;;;;;;;4.10;88.70;;;;;;5017976;28;19923;-84
2023/04/02 06:53:16;;;;;;;;;;;4.30;88.60;;;;;;5029538;28;19917;-84
2023/04/02 06:56:08;;;;;;;;;;;4.20;88.00;;;;;;5024074;28;19917;-83
2023/04/02 06:58:33;;;;;;;;;;;4.30;87.90;;;;;;5024602;28;19924;-84
2023/04/02 07:01:01;;;;;;;;;;;4.30;87.40;;;;;;5028576;28;19913;-84
2023/04/02 07:03:35;;;;;;;;;;;4.40;87.20;;;;;;5029649;28;19913;-83
2023/04/02 07:06:01;;;;;;;;;;;4.40;86.60;;;;;;5140919;23;20524;-77
2023/04/02 07:08:26;;;;;;;;;;;4.30;86.50;;;;;;5006360;28;19919;-78
2023/04/02 07:10:52;;;;;;;;;;;4.40;85.70;;;;;;5029877;28;20004;-79
2023/04/02 07:13:19;;;;;;;;;;;4.30;85.90;;;;;;5032750;28;19936;-79
2023/04/02 07:15:45;;;;;;;;;;;4.40;85.80;;;;;;5033195;28;19909;-79
2023/04/02 07:18:22;;;;;;;;;;;4.40;84.90;;;;;;5024467;28;19955;-80
2023/04/02 07:20:48;;;;;;;;;;;4.30;85.10;;;;;;5026779;28;20289;-79
2023/04/02 07:23:13;;;;;;;;;;;4.30;84.90;;;;;;5009580;28;19921;-83
2023/04/02 07:25:39;;;;;;;;;;;4.30;85.10;;;;;;5012621;28;19940;-84
2023/04/02 07:28:05;;;;;;;;;;;4.40;85.10;;;;;;5013287;28;20288;-81
2023/04/02 07:30:30;;;;;;;;;;;4.40;84.40;;;;;;5031478;28;19928;-79
2023/04/02 07:32:56;;;;;;;;;;;4.30;84.90;;;;;;5030237;28;19913;-80
2023/04/02 07:35:21;;;;;;;;;;;4.40;85.00;;;;;;5025613;28;20000;-84
2023/04/02 07:37:47;;;;;;;;;;;4.40;85.10;;;;;;5012724;28;19917;-78
2023/04/02 07:40:17;;;;;;;;;;;4.30;85.20;;;;;;5005460;28;19920;-78
2023/04/02 07:42:43;;;;;;;;;;;4.40;84.80;;;;;;5024937;28;20430;-80
2023/04/02 07:45:08;;;;;;;;;;;4.50;84.80;;;;;;5029385;28;19913;-78
2023/04/02 07:47:34;;;;;;;;;;;4.50;84.90;;;;;;5019332;28;19917;-81
2023/04/02 07:49:59;;;;;;;;;;;4.50;83.90;;;;;;5035955;28;20000;-80
2023/04/02 07:52:25;;;;;;;;;;;4.40;84.40;;;;;;5019579;28;19925;-81
2023/04/02 07:54:50;;;;;;;;;;;4.30;84.20;;;;;;5010156;28;19968;-79
2023/04/02 07:57:16;;;;;;;;;;;4.40;84.60;;;;;;5021421;28;19994;-78
2023/04/02 07:59:41;;;;;;;;;;;4.50;83.80;;;;;;5028518;28;19916;-82
2023/04/02 08:02:16;;;;;;;;;;;4.60;83.20;;;;;;5028626;28;19925;-79
2023/04/02 08:04:42;;;;;;;;;;;4.60;84.10;;;;;;5026807;28;19917;-79
2023/04/02 08:07:07;;;;;;;;;;;4.50;83.90;;;;;;5035721;28;20020;-79
2023/04/02 08:09:33;;;;;;;;;;;4.50;83.30;;;;;;5030479;28;19940;-81
2023/04/02 08:11:58;;;;;;;;;;;4.50;84.00;;;;;;5024464;28;19914;-79
2023/04/02 08:14:24;;;;;;;;;;;4.50;84.00;;;;;;5004866;28;19952;-79
2023/04/02 08:16:50;;;;;;;;;;;4.40;83.80;;;;;;5028178;28;20020;-79
2023/04/02 08:19:16;;;;;;;;;;;4.40;83.50;;;;;;5031259;28;19928;-79
2023/04/02 08:21:43;;;;;;;;;;;4.50;83.90;;;;;;5013619;28;19917;-78
2023/04/02 08:24:09;;;;;;;;;;;4.50;83.00;;;;;;5016128;28;19963;-79
2023/04/02 08:26:36;;;;;;;;;;;4.50;83.70;;;;;;5016221;28;19917;-81
2023/04/02 08:29:01;;;;;;;;;;;4.60;82.50;;;;;;5010101;28;19916;-81
2023/04/02 08:31:27;;;;;;;;;;;4.60;82.60;;;;;;5014997;28;20296;-82
2023/04/02 08:33:55;;;;;;;;;;;4.60;82.80;;;;;;5030147;28;19928;-81
2023/04/02 08:36:25;;;;;;;;;;;4.70;83.40;;;;;;5021041;28;20312;-81
2023/04/02 08:38:51;;;;;;;;;;;4.80;82.30;;;;;;5011635;28;19923;-80
2023/04/02 08:41:22;;;;;;;;;;;4.80;82.40;;;;;;5004981;28;19977;-81
2023/04/02 08:43:55;;;;;;;;;;;4.70;81.90;;;;;;5028642;28;19921;-80
2023/04/02 08:46:36;;;;;;;;;;;4.60;82.50;;;;;;5019342;28;20021;-81
2023/04/02 08:49:07;;;;;;;;;;;4.70;82.70;;;;;;5035380;28;19913;-81
2023/04/02 08:51:34;;;;;;;;;;;4.60;83.00;;;;;;5011648;28;19920;-81
2023/04/02 08:54:12;;;;;;;;;;;4.60;82.40;;;;;;5026091;28;19917;-80
2023/04/02 08:56:43;;;;;;;;;;;4.60;81.40;;;;;;5014893;28;19910;-80
2023/04/02 08:59:17;;;;;;;;;;;4.50;81.50;;;;;;5015617;28;19928;-82
2023/04/02 09:01:47;;;;;;;;;;;4.60;82.10;;;;;;5010862;28;20284;-82
2023/04/02 09:04:15;;;;;;;;;;;4.60;82.10;;;;;;5011978;28;19913;-82
2023/04/02 09:06:42;;;;;;;;;;;4.70;81.70;;;;;;5008824;28;20397;-81
2023/04/02 09:09:10;;;;;;;;;;;4.80;81.40;;;;;;5017633;28;19913;-81
2023/04/02 09:11:46;;;;;;;;;;;4.80;81.80;;;;;;5025361;28;19925;-81
2023/04/02 09:14:16;;;;;;;;;;;4.80;81.80;;;;;;5000368;28;19921;-79
2023/04/02 09:16:51;;;;;;;;;;;4.80;81.50;;;;;;5009744;28;21671;-81
2023/04/02 09:19:22;;;;;;;;;;;4.90;81.40;;;;;;5022937;28;20290;-80
2023/04/02 09:22:02;;;;;;;;;;;4.90;81.00;;;;;;5026560;28;19928;-81
2023/04/02 09:24:28;;;;;;;;;;;4.90;81.30;;;;;;5008563;28;19933;-81
2023/04/02 09:26:53;;;;;;;;;;;5.00;80.50;;;;;;5004849;28;20395;-81
2023/04/02 09:29:37;;;;;;;;;;;5.10;80.50;;;;;;5015424;28;19921;-79
2023/04/02 09:32:17;;;;;;;;;;;5.20;80.40;;;;;;5020482;28;19920;-80
2023/04/02 09:34:42;;;;;;;;;;;5.20;79.40;;;;;;5026611;28;19968;-81
2023/04/02 09:37:13;;;;;;;;;;;5.10;79.80;;;;;;5016461;28;19914;-79
2023/04/02 09:39:38;;;;;;;;;;;5.00;80.30;;;;;;5027607;28;19968;-80
2023/04/02 09:42:26;;;;;;;;;;;4.90;81.60;;;;;;5005350;28;19917;-80
2023/04/02 09:44:52;;;;;;;;;;;5.00;81.10;;;;;;5017186;28;19967;-81
2023/04/02 09:47:24;;;;;;;;;;;5.10;80.40;;;;;;5014629;28;19921;-81
2023/04/02 09:49:50;;;;;;;;;;;5.10;80.80;;;;;;5028581;28;19921;-81
2023/04/02 09:52:26;;;;;;;;;;;5.10;79.30;;;;;;5030893;28;19933;-79
2023/04/02 09:55:11;;;;;;;;;;;5.10;79.70;;;;;;5029114;28;19906;-80
2023/04/02 09:57:37;;;;;;;;;;;5.30;79.40;;;;;;5000579;28;19914;-81
2023/04/02 10:00:15;;;;;;;;;;;5.10;79.00;;;;;;5012611;28;19928;-80
2023/04/02 10:02:41;;;;;;;;;;;5.00;80.30;;;;;;5022266;28;19935;-80
2023/04/02 10:05:16;;;;;;;;;;;5.00;80.90;;;;;;5032330;28;20347;-80
2023/04/02 10:07:43;;;;;;;;;;;5.00;80.80;;;;;;5021945;28;19953;-79
2023/04/02 10:10:18;;;;;;;;;;;5.20;80.60;;;;;;5006012;28;19921;-80
2023/04/02 10:12:46;;;;;;;;;;;5.30;79.70;;;;;;5021734;28;20338;-80
2023/04/02 10:15:17;;;;;;;;;;;5.40;79.70;;;;;;5006308;28;19921;-79
2023/04/02 10:17:43;;;;;;;;;;;5.30;79.60;;;;;;4996007;28;19941;-78
2023/04/02 10:20:21;;;;;;;;;;;5.20;79.00;;;;;;5026062;28;19925;-81
2023/04/02 10:22:47;;;;;;;;;;;5.00;79.60;;;;;;5021601;28;20319;-84
2023/04/02 10:25:16;;;;;;;;;;;5.10;80.00;;;;;;5009785;28;20004;-81
2023/04/02 10:27:42;;;;;;;;;;;5.00;79.20;;;;;;5020775;28;20468;-81
2023/04/02 10:30:08;;;;;;;;;;;5.10;79.70;;;;;;5004873;28;19996;-80
2023/04/02 10:32:43;;;;;;;;;;;5.30;79.20;;;;;;5023334;28;19991;-79
2023/04/02 10:35:18;;;;;;;;;;;5.30;79.20;;;;;;5024398;28;20562;-80
2023/04/02 10:38:02;;;;;;;;;;;5.30;79.20;;;;;;5008217;28;19936;-80
2023/04/02 10:40:33;;;;;;;;;;;5.50;79.10;;;;;;5013343;28;19917;-80
2023/04/02 10:43:02;;;;;;;;;;;5.50;78.40;;;;;;5021690;28;20293;-82
2023/04/02 10:45:30;;;;;;;;;;;5.40;78.00;;;;;;5030074;28;19920;-86
2023/04/02 10:48:26;;;;;;;;;;;5.50;78.40;;;;;;5031064;28;19913;-83
2023/04/02 10:51:03;;;;;;;;;;;5.60;77.20;;;;;;4971373;28;19953;-85
2023/04/02 10:53:52;;;;;;;;;;;5.60;76.60;;;;;;5023701;28;20384;-84
2023/04/02 10:56:18;;;;;;;;;;;5.70;76.10;;;;;;5021420;28;19913;-85
2023/04/02 10:58:50;;;;;;;;;;;5.90;75.50;;;;;;5019051;28;19936;-84
2023/04/02 11:01:19;;;;;;;;;;;5.90;75.90;;;;;;5015581;28;19913;-84
2023/04/02 11:03:47;;;;;;;;;;;5.80;76.50;;;;;;5010612;28;19913;-83
2023/04/02 11:06:21;;;;;;;;;;;5.70;76.40;;;;;;5002375;28;19974;-82
2023/04/02 11:08:47;;;;;;;;;;;5.70;77.00;;;;;;5009078;28;19913;-83
2023/04/02 11:11:14;;;;;;;;;;;5.80;77.30;;;;;;5024285;28;19921;-83
2023/04/02 11:13:40;;;;;;;;;;;6.00;74.90;;;;;;5013164;28;19919;-82
2023/04/02 11:16:05;;;;;;;;;;;6.00;74.80;;;;;;5025282;28;20457;-81
2023/04/02 11:18:34;;;;;;;;;;;5.90;74.30;;;;;;5012403;28;20360;-84
2023/04/02 11:21:04;;;;;;;;;;;5.90;74.30;;;;;;5023583;28;19917;-81
2023/04/02 11:23:31;;;;;;;;;;;5.80;74.50;;;;;;5031841;28;19913;-81
2023/04/02 11:26:15;;;;;;;;;;;5.80;75.30;;;;;;5015330;28;19913;-85
2023/04/02 11:28:41;;;;;;;;;;;5.90;75.50;;;;;;5024045;28;19914;-83
2023/04/02 11:31:06;;;;;;;;;;;6.00;75.00;;;;;;5023121;28;19921;-82
2023/04/02 11:33:41;;;;;;;;;;;6.00;74.60;;;;;;5023152;28;20376;-83
2023/04/02 11:36:25;;;;;;;;;;;5.80;75.10;;;;;;5010644;28;20446;-83
2023/04/02 11:38:51;;;;;;;;;;;5.80;75.10;;;;;;5028242;28;20019;-81
2023/04/02 11:41:35;;;;;;;;;;;5.80;74.60;;;;;;5027342;28;19952;-82
2023/04/02 11:44:01;;;;;;;;;;;5.60;75.20;;;;;;5027019;28;20011;-81
2023/04/02 11:46:29;;;;;;;;;;;5.70;75.70;;;;;;5011639;28;20344;-84
2023/04/02 11:49:15;;;;;;;;;;;5.60;76.50;;;;;;5032190;28;19935;-84
2023/04/02 11:51:43;;;;;;;;;;;5.70;75.00;;;;;;5020942;28;19974;-85
2023/04/02 11:54:21;;;;;;;;;;;6.00;74.00;;;;;;5029415;28;19975;-82
2023/04/02 11:56:51;;;;;;;;;;;5.90;74.60;;;;;;5028496;28;19914;-84
2023/04/02 11:59:32;;;;;;;;;;;6.00;73.50;;;;;;5008456;28;19913;-84
2023/04/02 12:02:33;;;;;;;;;;;6.00;73.50;;;;;;5014829;28;19913;-84
2023/04/02 12:05:06;;;;;;;;;;;5.80;74.50;;;;;;4971454;28;19914;-81
2023/04/02 12:07:34;;;;;;;;;;;5.80;74.40;;;;;;5011977;28;19914;-82
2023/04/02 12:10:16;;;;;;;;;;;5.90;75.10;;;;;;5026396;28;21071;-79
2023/04/02 12:12:42;;;;;;;;;;;5.80;76.20;;;;;;5011003;28;19917;-83
2023/04/02 12:15:26;;;;;;;;;;;5.80;74.80;;;;;;5019250;28;19921;-82
2023/04/02 12:17:52;;;;;;;;;;;5.60;75.10;;;;;;5017180;28;19972;-84
2023/04/02 12:20:19;;;;;;;;;;;5.70;76.20;;;;;;5030936;28;19952;-81
2023/04/02 12:22:46;;;;;;;;;;;5.60;75.30;;;;;;5025775;28;19910;-82
2023/04/02 12:25:17;;;;;;;;;;;5.60;75.10;;;;;;5013208;28;19936;-81
2023/04/02 12:27:45;;;;;;;;;;;5.60;76.10;;;;;;5032095;28;20381;-84
2023/04/02 12:30:13;;;;;;;;;;;5.70;75.40;;;;;;5033454;28;20257;-83
2023/04/02 12:32:38;;;;;;;;;;;5.70;75.00;;;;;;5009269;28;19928;-85
2023/04/02 12:35:05;;;;;;;;;;;5.80;75.50;;;;;;5033358;28;19917;-84
2023/04/02 12:37:30;;;;;;;;;;;5.90;74.50;;;;;;5019523;28;20276;-84
2023/04/02 12:39:57;;;;;;;;;;;6.00;73.00;;;;;;5030132;28;20004;-83
2023/04/02 12:42:27;;;;;;;;;;;6.20;71.90;;;;;;5028728;28;19908;-86
2023/04/02 12:44:52;;;;;;;;;;;6.30;71.60;;;;;;5012589;28;20345;-86
2023/04/02 12:47:18;;;;;;;;;;;6.20;72.00;;;;;;5015809;28;19913;-80
2023/04/02 12:49:44;;;;;;;;;;;6.40;73.70;;;;;;5029166;28;20003;-83
2023/04/02 12:52:11;;;;;;;;;;;6.60;70.50;;;;;;5038041;28;19917;-82
2023/04/02 12:54:43;;;;;;;;;;;6.50;71.90;;;;;;5010979;28;19936;-83
2023/04/02 12:57:41;;;;;;;;;;;6.50;69.20;;;;;;5026422;28;19919;-81
2023/04/02 13:00:19;;;;;;;;;;;6.50;70.60;;;;;;4991943;28;19920;-84
2023/04/02 13:02:47;;;;;;;;;;;6.60;70.40;;;;;;5025844;28;19914;-87
2023/04/02 13:05:30;;;;;;;;;;;6.50;71.10;;;;;;5024117;28;20067;-79
2023/04/02 13:07:55;;;;;;;;;;;6.60;69.60;;;;;;5016433;23;20034;-81
2023/04/02 13:10:22;;;;;;;;;;;6.50;70.50;;;;;;5027469;28;19952;-80
2023/04/02 13:12:53;;;;;;;;;;;6.50;69.60;;;;;;5029231;28;19982;-81
2023/04/02 13:15:21;;;;;;;;;;;6.60;70.20;;;;;;5029632;28;19920;-80
2023/04/02 13:18:00;;;;;;;;;;;6.70;70.30;;;;;;5029332;28;19927;-80
2023/04/02 13:20:28;;;;;;;;;;;6.60;69.10;;;;;;5008592;28;20032;-80
2023/04/02 13:22:54;;;;;;;;;;;6.70;70.30;;;;;;5003627;28;20448;-81
2023/04/02 13:25:26;;;;;;;;;;;6.70;70.00;;;;;;5003705;28;19921;-79
2023/04/02 13:27:52;;;;;;;;;;;6.60;70.10;;;;;;5004837;28;19917;-82
2023/04/02 13:30:20;;;;;;;;;;;6.60;69.40;;;;;;5013039;28;19932;-81
2023/04/02 13:32:46;;;;;;;;;;;6.80;70.70;;;;;;5010966;28;19914;-82
2023/04/02 13:35:12;;;;;;;;;;;7.10;69.60;;;;;;5008847;28;20346;-81
2023/04/02 13:37:37;;;;;;;;;;;7.10;68.80;;;;;;5004144;28;19920;-81
2023/04/02 13:40:03;;;;;;;;;;;7.20;70.30;;;;;;5006854;28;19921;-86
2023/04/02 13:42:29;;;;;;;;;;;7.20;68.00;;;;;;5008712;28;19914;-83
2023/04/02 13:44:55;;;;;;;;;;;7.30;67.10;;;;;;5007033;28;19913;-81
2023/04/02 13:47:20;;;;;;;;;;;7.30;66.30;;;;;;5006650;28;19913;-83
2023/04/02 13:49:46;;;;;;;;;;;7.50;68.40;;;;;;5011359;28;20064;-83
2023/04/02 13:52:13;;;;;;;;;;;7.60;67.00;;;;;;5009309;28;19913;-83
2023/04/02 13:54:47;;;;;;;;;;;7.40;67.40;;;;;;5008926;28;19986;-80
2023/04/02 13:57:13;;;;;;;;;;;7.40;66.90;;;;;;5006022;28;19914;-84
2023/04/02 13:59:38;;;;;;;;;;;7.60;68.20;;;;;;5006207;28;19914;-82
2023/04/02 14:02:14;;;;;;;;;;;7.70;66.70;;;;;;5012345;28;19947;-83
2023/04/02 14:04:46;;;;;;;;;;;7.60;66.50;;;;;;5018757;28;19913;-83
2023/04/02 14:07:11;;;;;;;;;;;7.60;66.10;;;;;;5022077;28;19961;-83
2023/04/02 14:10:09;;;;;;;;;;;7.50;66.10;;;;;;5011946;28;19917;-82
2023/04/02 14:12:54;;;;;;;;;;;7.50;66.40;;;;;;4979166;28;19944;-81
2023/04/02 14:15:46;;;;;;;;;;;7.60;64.70;;;;;;5013826;28;19924;-83
2023/04/02 14:18:11;;;;;;;;;;;7.60;65.60;;;;;;4987137;28;20291;-83
2023/04/02 14:20:45;;;;;;;;;;;7.60;65.70;;;;;;5008521;28;19914;-82
2023/04/02 14:23:15;;;;;;;;;;;7.60;65.30;;;;;;5007247;28;19921;-83
2023/04/02 14:25:59;;;;;;;;;;;7.60;64.90;;;;;;5009312;28;19960;-81
2023/04/02 14:28:38;;;;;;;;;;;7.60;65.00;;;;;;5006490;28;19913;-82
2023/04/02 14:31:14;;;;;;;;;;;7.80;67.10;;;;;;5008013;28;19917;-82
2023/04/02 14:33:48;;;;;;;;;;;7.80;65.70;;;;;;5010799;28;20424;-80
2023/04/02 14:36:32;;;;;;;;;;;7.70;65.20;;;;;;5014336;28;19976;-78
2023/04/02 14:39:06;;;;;;;;;;;7.60;65.70;;;;;;5019888;28;19921;-81
2023/04/02 14:41:32;;;;;;;;;;;7.60;66.30;;;;;;5012046;28;19913;-82
2023/04/02 14:44:03;;;;;;;;;;;7.50;65.60;;;;;;5011548;28;19914;-82
2023/04/02 14:46:29;;;;;;;;;;;7.50;64.50;;;;;;5011429;28;19914;-82
2023/04/02 14:49:05;;;;;;;;;;;7.50;65.30;;;;;;5026421;28;19928;-80
2023/04/02 14:51:36;;;;;;;;;;;7.50;64.40;;;;;;5008530;28;20465;-79
2023/04/02 14:54:21;;;;;;;;;;;7.40;66.30;;;;;;5023090;28;19913;-87